Time;durP1;ratioP1;P1;durP2;ratioP2;P2;SDS_P1;SDS_P2;PMS_P1;PMS_P2;Temp;Humidity;BMP_temperature;BMP_pressure;BME280_temperature;BME280_humidity;BME280_pressure;Samples;Min_cycle;Max_cycle;Signal;HPM_P1;HPM_P2
2023/06/19 00:01:14;;;;;;;7.93;4.47;;;;;;;19.40;51.08;99717.84;7685109;32;37877;-86
2023/06/19 00:05:30;;;;;;;7.50;4.60;;;;;;;19.28;51.69;99713.00;7684854;32;39293;-86
2023/06/19 00:09:47;;;;;;;8.15;4.78;;;;;;;19.25;51.43;99710.94;7684871;32;40592;-85
2023/06/19 00:14:03;;;;;;;10.25;5.05;;;;;;;19.23;51.34;99705.75;7671298;32;38601;-85
2023/06/19 00:18:20;;;;;;;8.27;5.40;;;;;;;19.20;51.23;99700.88;7684764;32;37096;-83
2023/06/19 00:22:36;;;;;;;8.30;4.55;;;;;;;19.08;51.70;99700.75;7684255;32;39374;-83
2023/06/19 00:26:52;;;;;;;8.93;5.22;;;;;;;19.06;51.83;99709.38;7695001;32;39929;-83
2023/06/19 00:31:09;;;;;;;7.87;4.68;;;;;;;19.02;51.98;99716.69;7711000;32;37593;-83
2023/06/19 00:35:27;;;;;;;8.00;4.70;;;;;;;19.05;51.75;99712.47;7711015;32;37885;-83
2023/06/19 00:39:44;;;;;;;7.97;4.90;;;;;;;18.82;52.72;99707.19;7711129;32;39338;-83
2023/06/19 00:44:00;;;;;;;7.95;4.55;;;;;;;18.64;53.22;99700.84;7710891;32;39963;-84
2023/06/19 00:48:17;;;;;;;7.45;4.45;;;;;;;18.80;52.30;99703.09;7710919;32;38619;-83
2023/06/19 00:52:33;;;;;;;7.43;4.80;;;;;;;18.95;51.76;99702.59;7710832;32;37223;-83
2023/06/19 00:56:50;;;;;;;8.52;4.80;;;;;;;18.86;52.00;99699.03;7702811;32;39433;-83
2023/06/19 01:01:07;;;;;;;7.35;4.43;;;;;;;18.77;52.35;99699.84;7696345;32;39891;-83
2023/06/19 01:05:25;;;;;;;8.95;4.82;;;;;;;18.93;51.91;99702.09;7710405;32;37803;-84
2023/06/19 01:09:51;;;;;;;9.55;5.03;;;;;;;18.69;52.79;99706.19;7710478;32;38217;-83
2023/06/19 01:14:12;;;;;;;8.95;4.90;;;;;;;18.70;52.69;99699.53;7697368;32;39424;-83
2023/06/19 01:18:30;;;;;;;7.30;4.62;;;;;;;18.90;52.10;99697.25;7697026;32;39918;-83
2023/06/19 01:22:46;;;;;;;7.82;4.87;;;;;;;18.80;52.32;99694.78;7710126;32;37781;-84
2023/06/19 01:27:03;;;;;;;8.20;5.28;;;;;;;18.79;52.29;99691.22;7696336;32;36869;-83
2023/06/19 01:31:25;;;;;;;7.75;4.85;;;;;;;18.74;52.44;99692.22;7669689;32;39272;-83
2023/06/19 01:35:43;;;;;;;6.28;4.07;;;;;;;18.88;52.11;99691.25;7686375;32;39962;-83
2023/06/19 01:40:02;;;;;;;7.12;4.60;;;;;;;18.92;51.95;99686.66;7686551;32;37809;-83
2023/06/19 01:44:18;;;;;;;9.02;5.22;;;;;;;18.73;52.42;99682.31;7695266;32;36021;-84
2023/06/19 01:48:36;;;;;;;7.68;4.87;;;;;;;18.70;52.71;99677.44;7713018;32;39090;-83
2023/06/19 01:52:53;;;;;;;7.50;4.47;;;;;;;18.58;53.49;99680.09;7712977;32;39900;-83
2023/06/19 01:57:09;;;;;;;11.38;4.78;;;;;;;18.37;54.31;99683.53;7699499;32;38000;-83
2023/06/19 02:01:26;;;;;;;8.30;4.87;;;;;;;18.29;54.29;99689.06;7686253;32;37084;-83
2023/06/19 02:05:43;;;;;;;8.23;5.00;;;;;;;18.48;53.43;99691.47;7686150;32;39655;-83
2023/06/19 02:09:59;;;;;;;9.07;4.93;;;;;;;18.37;53.80;99686.28;7686155;32;40022;-83
2023/06/19 02:14:15;;;;;;;7.55;4.70;;;;;;;18.45;53.64;99683.84;7686081;32;37844;-83
2023/06/19 02:18:32;;;;;;;9.25;5.43;;;;;;;18.42;54.02;99685.31;7672418;32;37113;-84
2023/06/19 02:22:49;;;;;;;8.27;4.97;;;;;;;18.27;54.41;99685.81;7686068;32;40111;-82
2023/06/19 02:27:06;;;;;;;12.35;4.82;;;;;;;18.31;54.51;99690.34;7698100;32;40973;-82
2023/06/19 02:31:25;;;;;;;8.30;4.90;;;;;;;18.16;55.56;99699.13;7685186;32;38683;-83
2023/06/19 02:35:41;;;;;;;9.10;5.03;;;;;;;18.12;55.69;99696.19;7685890;32;38826;-83
2023/06/19 02:39:58;;;;;;;7.62;4.87;;;;;;;18.16;55.31;99696.34;7685908;32;40102;-83
2023/06/19 02:44:14;;;;;;;9.57;5.20;;;;;;;18.15;54.90;99701.06;7685926;32;38516;-83
2023/06/19 02:48:31;;;;;;;10.10;5.22;;;;;;;18.11;54.82;99704.78;7685675;32;37626;-85
2023/06/19 02:52:47;;;;;;;10.25;5.22;;;;;;;18.07;54.81;99703.81;7685765;32;37051;-85
2023/06/19 02:57:04;;;;;;;8.77;4.53;;;;;;;17.99;55.08;99703.50;7708670;32;40085;-85
2023/06/19 03:01:21;;;;;;;9.50;5.30;;;;;;;18.28;54.28;99692.94;7712230;32;40949;-86
2023/06/19 03:05:38;;;;;;;9.02;5.05;;;;;;;18.38;54.33;99696.19;7712189;32;37949;-86
2023/06/19 03:09:54;;;;;;;10.02;5.65;;;;;;;18.24;55.22;99692.78;7712243;32;37951;-85
2023/06/19 03:14:10;;;;;;;8.73;5.32;;;;;;;18.31;55.32;99693.09;7712068;32;39616;-86
2023/06/19 03:18:27;;;;;;;9.68;5.30;;;;;;;18.31;55.85;99698.63;7712030;32;39716;-85
2023/06/19 03:22:43;;;;;;;10.23;5.28;;;;;;;18.30;56.12;99702.53;7711976;32;37941;-86
2023/06/19 03:26:59;;;;;;;9.25;5.45;;;;;;;18.30;56.24;99701.69;7689074;32;37956;-86
2023/06/19 03:31:16;;;;;;;9.82;5.12;;;;;;;18.44;55.62;99691.31;7685040;32;39532;-85
2023/06/19 03:35:32;;;;;;;9.20;5.55;;;;;;;18.44;55.84;99696.84;7685217;32;40912;-85
2023/06/19 03:39:49;;;;;;;9.48;6.00;;;;;;;18.46;56.07;99700.06;7685159;32;37722;-85
2023/06/19 03:44:05;;;;;;;9.27;5.47;;;;;;;18.52;56.59;99698.78;7685222;32;37212;-85
2023/06/19 03:48:21;;;;;;;8.57;5.53;;;;;;;18.58;57.17;99702.16;7685073;32;40198;-86
2023/06/19 03:52:38;;;;;;;9.65;5.35;;;;;;;18.60;57.96;99708.16;7671328;32;39985;-86
2023/06/19 03:56:54;;;;;;;10.32;5.60;;;;;;;18.64;58.30;99708.31;7696878;32;36335;-86
2023/06/19 04:01:11;;;;;;;8.90;5.43;;;;;;;18.75;56.37;99713.19;7684900;32;37339;-84
2023/06/19 04:05:27;;;;;;;11.32;5.75;;;;;;;18.70;57.29;99716.12;7684983;32;40203;-85
2023/06/19 04:09:46;;;;;;;10.82;5.53;;;;;;;18.72;58.19;99715.78;7684828;32;39859;-86
2023/06/19 04:14:03;;;;;;;10.73;6.00;;;;;;;18.81;57.77;99715.75;7684822;32;37667;-86
2023/06/19 04:18:19;;;;;;;10.15;6.00;;;;;;;18.86;57.69;99727.47;7684805;32;37237;-86
2023/06/19 04:22:35;;;;;;;10.40;6.68;;;;;;;18.73;58.57;99722.91;7684841;32;40053;-85
2023/06/19 04:26:52;;;;;;;10.32;6.07;;;;;;;18.89;58.03;99720.50;7707612;32;39863;-85
2023/06/19 04:31:09;;;;;;;10.63;6.15;;;;;;;18.96;58.22;99720.78;7710948;32;37790;-86
2023/06/19 04:35:26;;;;;;;12.20;5.93;;;;;;;19.12;57.89;99727.37;7711161;32;37837;-85
2023/06/19 04:39:42;;;;;;;11.05;5.62;;;;;;;19.10;58.05;99729.66;7711030;32;40248;-86
2023/06/19 04:44:00;;;;;;;9.90;6.05;;;;;;;19.22;58.26;99728.97;7702987;32;41186;-77
2023/06/19 04:48:16;;;;;;;10.13;6.22;;;;;;;19.43;57.95;99720.75;7690157;32;37878;-78
2023/06/19 04:52:33;;;;;;;12.35;5.47;;;;;;;19.52;57.50;99717.94;7710873;32;36794;-80
2023/06/19 04:56:49;;;;;;;9.23;5.57;;;;;;;19.77;57.11;99724.50;7710848;32;39416;-80
2023/06/19 05:01:05;;;;;;;9.52;5.53;;;;;;;19.96;57.26;99726.00;7710718;32;39928;-80
2023/06/19 05:05:22;;;;;;;31.05;6.57;;;;;;;20.34;56.61;99714.78;7709975;32;38798;-79
2023/06/19 05:09:39;;;;;;;16.75;6.15;;;;;;;20.47;55.99;99718.41;7710082;32;37878;-80
2023/06/19 05:13:56;;;;;;;9.30;4.80;;;;;;;20.59;55.32;99725.97;7710432;32;40084;-78
2023/06/19 05:18:12;;;;;;;10.80;5.85;;;;;;;20.71;54.41;99728.78;7710294;32;40062;-86
2023/06/19 05:22:29;;;;;;;12.52;5.53;;;;;;;20.47;56.20;99743.34;7696320;32;38504;-85
2023/06/19 05:26:45;;;;;;;7.62;4.80;;;;;;;20.89;55.19;99723.09;7710097;32;37374;-87
2023/06/19 05:31:01;;;;;;;7.80;4.60;;;;;;;21.13;54.07;99730.66;7709810;32;39424;-86
2023/06/19 05:35:18;;;;;;;6.45;4.12;;;;;;;21.15;52.18;99736.66;7709835;32;40956;-85
2023/06/19 05:39:34;;;;;;;10.23;5.07;;;;;;;20.97;51.93;99736.84;7709730;32;38641;-77
2023/06/19 05:43:50;;;;;;;8.10;4.75;;;;;;;21.53;50.85;99730.00;7709317;32;38271;-77
2023/06/19 05:48:07;;;;;;;7.85;4.62;;;;;;;21.60;51.02;99730.22;7709502;32;39948;-77
2023/06/19 05:52:24;;;;;;;11.02;4.57;;;;;;;21.36;51.95;99737.34;7709383;32;40061;-78
2023/06/19 05:56:41;;;;;;;7.30;4.57;;;;;;;21.67;52.22;99738.78;7682797;32;38083;-78
2023/06/19 06:00:58;;;;;;;8.63;4.97;;;;;;;21.57;53.39;99748.34;7700755;32;36810;-76
2023/06/19 06:05:16;;;;;;;8.48;5.15;;;;;;;21.01;54.37;99754.41;7709081;32;39392;-78
2023/06/19 06:09:35;;;;;;;11.38;4.90;;;;;;;21.57;52.36;99753.09;7708801;32;41577;-78
2023/06/19 06:13:51;;;;;;;9.25;5.00;;;;;;;21.63;52.64;99756.44;7708935;32;37883;-78
2023/06/19 06:18:08;;;;;;;8.05;5.18;;;;;;;22.15;52.22;99752.94;7709189;32;37805;-77
2023/06/19 06:22:24;;;;;;;9.52;5.53;;;;;;;21.81;53.38;99751.47;7712827;32;40191;-77
2023/06/19 06:26:41;;;;;;;9.18;5.25;;;;;;;21.99;52.74;99752.84;7712591;32;39747;-78
2023/06/19 06:30:57;;;;;;;8.13;4.78;;;;;;;22.22;52.89;99757.87;7709325;32;225828;-74
2023/06/19 06:35:14;;;;;;;8.38;5.50;;;;;;;22.44;51.54;99756.59;7717301;32;37859;-77
2023/06/19 06:39:30;;;;;;;9.15;5.68;;;;;;;22.92;49.24;99760.31;7712601;32;39463;-78
2023/06/19 06:43:46;;;;;;;8.52;4.90;;;;;;;23.24;48.43;99766.72;7712465;32;40123;-78
2023/06/19 06:48:04;;;;;;;13.10;5.53;;;;;;;23.55;47.43;99758.75;7694010;32;38561;-78
2023/06/19 06:52:20;;;;;;;8.25;5.78;;;;;;;23.59;47.79;99771.59;7685738;32;37334;-78
2023/06/19 06:56:37;;;;;;;9.68;5.35;;;;;;;24.02;47.09;99759.84;7685750;32;39917;-78
2023/06/19 07:00:53;;;;;;;8.15;5.07;;;;;;;24.20;46.26;99752.72;7685519;32;40080;-80
2023/06/19 07:05:10;;;;;;;7.95;5.22;;;;;;;24.43;45.91;99752.78;7685493;32;38471;-86
2023/06/19 07:09:27;;;;;;;7.45;4.62;;;;;;;24.79;45.74;99755.53;7685659;32;36785;-85
2023/06/19 07:13:43;;;;;;;9.40;5.53;;;;;;;24.72;45.66;99754.19;7685458;32;40361;-77
2023/06/19 07:18:00;;;;;;;10.93;5.47;;;;;;;24.53;44.65;99757.78;7685361;32;40863;-77
2023/06/19 07:22:16;;;;;;;10.07;4.82;;;;;;;25.01;45.00;99754.75;7685009;32;37998;-79
2023/06/19 07:26:32;;;;;;;12.45;5.22;;;;;;;25.03;45.24;99769.12;7685079;32;37986;-80
2023/06/19 07:30:49;;;;;;;8.55;5.25;;;;;;;25.42;45.16;99746.72;7702303;32;39896;-73
2023/06/19 07:35:07;;;;;;;12.02;4.72;;;;;;;25.47;44.50;99752.00;7711829;32;39885;-73
2023/06/19 07:39:23;;;;;;;8.65;5.10;;;;;;;25.76;44.18;99737.66;7711693;32;37935;-73
2023/06/19 07:43:39;;;;;;;7.60;4.85;;;;;;;26.01;43.59;99749.25;7711960;32;37003;-74
2023/06/19 07:47:57;;;;;;;9.25;4.85;;;;;;;26.33;43.92;99744.06;7711919;32;39482;-78
2023/06/19 07:52:14;;;;;;;7.07;4.60;;;;;;;26.08;42.89;99732.56;7711810;32;40151;-78
2023/06/19 07:56:31;;;;;;;9.57;5.12;;;;;;;25.96;43.18;99736.41;7711634;32;38951;-79
2023/06/19 08:00:48;;;;;;;11.12;5.60;;;;;;;26.61;43.12;99734.41;7711884;32;37967;-78
2023/06/19 08:05:05;;;;;;;10.50;4.60;;;;;;;26.55;42.35;99741.53;7711742;32;40206;-77
2023/06/19 08:09:22;;;;;;;7.62;4.90;;;;;;;26.72;41.90;99742.97;7710437;32;39984;-79
2023/06/19 08:13:38;;;;;;;9.30;5.47;;;;;;;27.24;42.26;99741.06;7709989;32;37876;-79
2023/06/19 08:17:55;;;;;;;10.55;5.75;;;;;;;27.09;41.73;99742.91;7708029;32;37957;-81
2023/06/19 08:22:11;;;;;;;7.22;5.22;;;;;;;27.67;41.54;99737.84;7708819;32;39811;-81
2023/06/19 08:26:27;;;;;;;8.60;4.97;;;;;;;27.51;41.78;99741.72;7708715;32;40322;-75
2023/06/19 08:30:45;;;;;;;7.53;5.30;;;;;;;27.54;41.36;99742.94;7707913;32;38674;-79
2023/06/19 08:35:02;;;;;;;7.62;4.90;;;;;;;27.84;41.51;99745.56;7709217;32;39247;-81
2023/06/19 08:39:22;;;;;;;8.82;5.55;;;;;;;28.15;40.52;99740.56;7711190;32;39437;-82
2023/06/19 08:43:38;;;;;;;7.20;4.87;;;;;;;28.14;40.59;99746.56;7710714;32;40021;-82
2023/06/19 08:48:04;;;;;;;8.93;5.20;;;;;;;28.35;40.19;99751.47;7710828;32;37945;-83
2023/06/19 08:52:21;;;;;;;12.43;5.15;;;;;;;28.65;39.54;99743.59;7710931;32;36859;-80
2023/06/19 08:56:37;;;;;;;10.77;5.47;;;;;;;28.68;40.40;99746.81;7710686;32;40041;-81
2023/06/19 09:00:54;;;;;;;11.38;5.07;;;;;;;28.99;38.95;99748.06;7710619;32;40006;-81
2023/06/19 09:05:12;;;;;;;9.93;5.03;;;;;;;29.27;39.16;99738.94;7696855;32;37901;-81
2023/06/19 09:09:30;;;;;;;11.55;4.78;;;;;;;29.23;38.10;99737.31;7710414;32;37157;-83
2023/06/19 09:13:58;;;;;;;8.43;5.03;;;;;;;29.46;39.44;99734.91;7696937;32;39119;-84
2023/06/19 09:18:14;;;;;;;9.23;4.75;;;;;;;29.68;38.05;99730.06;7694467;32;39980;-83
2023/06/19 09:22:31;;;;;;;7.87;5.22;;;;;;;30.07;36.34;99725.59;7706895;32;38176;-83
2023/06/19 09:26:50;;;;;;;8.73;4.68;;;;;;;29.90;36.61;99732.88;7705905;32;37087;-81
2023/06/19 09:31:06;;;;;;;8.98;5.40;;;;;;;29.92;36.46;99725.63;7693614;32;38334;-81
2023/06/19 09:35:23;;;;;;;8.90;4.95;;;;;;;29.48;36.61;99721.28;7706505;32;40520;-82
2023/06/19 09:39:40;;;;;;;12.05;4.95;;;;;;;30.25;35.07;99717.09;7706350;32;38278;-79
2023/06/19 09:43:59;;;;;;;8.35;4.85;;;;;;;30.42;34.02;99718.25;7706513;32;37157;-82
2023/06/19 09:48:20;;;;;;;8.52;4.90;;;;;;;30.30;34.30;99708.22;7692924;32;39383;-83
2023/06/19 09:52:36;;;;;;;7.60;4.62;;;;;;;30.52;32.20;99703.34;7707503;32;40898;-82
2023/06/19 09:56:58;;;;;;;6.37;4.57;;;;;;;30.40;34.05;99713.03;7708980;32;38630;-86
2023/06/19 10:01:14;;;;;;;9.10;4.67;;;;;;;30.39;34.12;99699.38;7697275;32;37446;-86
2023/06/19 10:05:32;;;;;;;8.05;4.65;;;;;;;30.91;34.11;99699.50;7710923;32;39926;-86
2023/06/19 10:10:30;;;;;;;7.43;4.80;;;;;;;31.02;33.04;99700.22;7712135;32;40167;-86
2023/06/19 10:14:50;;;;;;;8.43;4.55;;;;;;;31.23;32.44;99695.66;7712785;32;36874;-88
2023/06/19 10:19:16;;;;;;;10.90;4.57;;;;;;;31.23;31.37;99692.81;7712727;32;37120;-86
2023/06/19 10:23:36;;;;;;;7.85;4.53;;;;;;;31.40;32.25;99686.22;7712678;32;39354;-84
2023/06/19 10:27:54;;;;;;;6.30;4.45;;;;;;;31.58;29.69;99688.09;7712607;32;40717;-83
2023/06/19 10:32:10;;;;;;;7.43;4.78;;;;;;;31.95;30.25;99687.31;7712574;32;37892;-84
2023/06/19 10:36:27;;;;;;;8.05;4.60;;;;;;;31.74;29.75;99685.53;7712686;32;37656;-84
2023/06/19 10:40:45;;;;;;;9.10;4.45;;;;;;;31.92;31.28;99678.88;7712541;32;40193;-84
2023/06/19 10:45:06;;;;;;;7.95;4.03;;;;;;;32.11;28.82;99678.28;7712424;32;40073;-83
2023/06/19 10:49:23;;;;;;;6.50;4.20;;;;;;;32.40;31.88;99682.75;7712170;32;36834;-83
2023/06/19 10:53:39;;;;;;;7.93;4.05;;;;;;;32.94;30.69;99680.78;7712252;32;37272;-84
2023/06/19 10:57:56;;;;;;;8.35;4.40;;;;;;;32.77;27.08;99676.19;7712272;32;40052;-87
2023/06/19 11:02:13;;;;;;;6.82;4.57;;;;;;;32.67;28.12;99688.47;7712037;32;39911;-88
2023/06/19 11:06:30;;;;;;;8.68;4.82;;;;;;;32.83;27.69;99682.97;7711928;32;37860;-88
2023/06/19 11:10:47;;;;;;;6.75;4.22;;;;;;;32.38;26.35;99677.53;7711629;32;37897;-87
2023/06/19 11:15:07;;;;;;;7.10;4.60;;;;;;;32.04;28.60;99681.16;7696748;32;40021;-88
2023/06/19 11:19:30;;;;;;;8.70;4.68;;;;;;;32.05;27.75;99674.34;7710555;32;40797;-84
2023/06/19 11:23:48;;;;;;;7.68;4.35;;;;;;;32.12;26.69;99667.81;7711833;32;38018;-85
2023/06/19 11:28:22;;;;;;;8.30;4.40;;;;;;;32.41;28.59;99673.87;7697905;32;35955;-87
2023/06/19 11:32:41;;;;;;;14.63;4.50;;;;;;;32.62;26.91;99683.28;7708081;32;39368;-84
2023/06/19 11:36:58;;;;;;;7.87;4.60;;;;;;;31.33;28.23;99671.44;7705628;32;40006;-86
2023/06/19 11:41:24;;;;;;;8.32;4.55;;;;;;;31.20;27.60;99668.31;7708044;32;37915;-86
2023/06/19 11:45:49;;;;;;;7.18;4.32;;;;;;;31.69;28.66;99666.25;7695838;32;37752;-85
2023/06/19 11:50:06;;;;;;;7.62;4.10;;;;;;;31.50;27.39;99655.63;7711644;32;39609;-88
2023/06/19 11:54:23;;;;;;;8.45;4.22;;;;;;;31.97;27.21;99658.69;7695756;32;40659;-87
2023/06/19 11:58:40;;;;;;;8.30;4.37;;;;;;;31.88;26.75;99664.06;7708613;32;38693;-87
2023/06/19 12:02:58;;;;;;;6.47;4.15;;;;;;;31.90;26.71;99650.34;7710028;32;36827;-87
2023/06/19 12:07:15;;;;;;;7.62;4.40;;;;;;;32.47;26.69;99645.97;7697224;32;39845;-89
2023/06/19 12:11:31;;;;;;;7.97;4.50;;;;;;;32.79;25.70;99656.00;7711314;32;39822;-89
2023/06/19 12:15:48;;;;;;;9.32;4.65;;;;;;;33.02;24.76;99649.59;7710544;32;38060;-88
2023/06/19 12:20:05;;;;;;;10.23;4.95;;;;;;;32.86;24.83;99645.41;7711267;32;37081;-88
2023/06/19 12:24:22;;;;;;;7.32;4.20;;;;;;;32.71;25.58;99639.19;7711237;32;39209;-86
2023/06/19 12:28:38;;;;;;;7.85;4.55;;;;;;;32.59;24.43;99636.16;7709661;32;41383;-85
2023/06/19 12:32:55;;;;;;;7.00;4.12;;;;;;;33.02;25.65;99636.28;7710951;32;37756;-85
2023/06/19 12:37:15;;;;;;;6.80;4.07;;;;;;;33.02;22.96;99635.47;7710841;32;38108;-86
2023/06/19 12:41:31;;;;;;;9.75;4.80;;;;;;;33.04;23.24;99631.00;7711048;32;40195;-86
2023/06/19 12:45:48;;;;;;;8.57;4.50;;;;;;;33.61;23.25;99628.37;7710867;32;40249;-86
2023/06/19 12:50:05;;;;;;;6.57;4.28;;;;;;;33.37;23.87;99622.75;7710722;32;37903;-85
2023/06/19 12:54:21;;;;;;;8.13;4.35;;;;;;;33.22;27.37;99622.25;7710801;32;37820;-85
2023/06/19 12:58:38;;;;;;;7.37;3.62;;;;;;;33.25;24.87;99621.38;7708534;32;40151;-85
2023/06/19 13:02:54;;;;;;;6.57;4.32;;;;;;;33.07;24.81;99620.87;7708373;32;39930;-86
2023/06/19 13:07:12;;;;;;;8.23;5.15;;;;;;;33.45;21.81;99612.16;7707613;32;37767;-87
2023/06/19 13:11:29;;;;;;;8.05;4.80;;;;;;;33.78;22.41;99612.34;7707313;32;36131;-88
2023/06/19 13:15:45;;;;;;;9.32;4.72;;;;;;;34.30;22.88;99603.13;7707853;32;39433;-88
2023/06/19 13:20:03;;;;;;;8.73;5.55;;;;;;;34.21;25.09;99597.31;7710104;32;40851;-88
2023/06/19 13:24:20;;;;;;;8.10;4.32;;;;;;;33.72;24.30;99597.09;7709958;32;37997;-87
2023/06/19 13:28:37;;;;;;;8.50;4.40;;;;;;;33.59;23.27;99588.47;7710103;32;37085;-87
2023/06/19 13:32:56;;;;;;;10.95;4.75;;;;;;;34.13;23.09;99585.31;7709633;32;37441;-89
2023/06/19 13:37:20;;;;;;;7.28;4.57;;;;;;;34.39;24.09;99577.06;7708928;32;39859;-88
2023/06/19 13:41:36;;;;;;;6.53;4.35;;;;;;;33.22;24.87;99588.34;7709580;32;38625;-87
2023/06/19 13:45:53;;;;;;;9.07;4.68;;;;;;;33.58;23.33;99582.03;7709766;32;37008;-88
2023/06/19 13:50:14;;;;;;;12.18;4.40;;;;;;;33.41;25.08;99585.97;7709241;32;40179;-88
2023/06/19 13:54:30;;;;;;;9.18;4.70;;;;;;;33.40;24.32;99592.88;7710989;32;39596;-87
2023/06/19 13:58:47;;;;;;;7.68;4.43;;;;;;;34.01;23.22;99589.63;7712483;32;37689;-89
2023/06/19 14:03:06;;;;;;;8.82;4.55;;;;;;;34.21;23.32;99586.00;7711389;32;37336;-85
2023/06/19 14:07:23;;;;;;;15.52;4.60;;;;;;;34.00;22.33;99584.41;7712606;32;39884;-89
2023/06/19 14:11:40;;;;;;;16.55;4.82;;;;;;;34.31;23.03;99581.31;7712000;32;39973;-90
2023/06/19 14:15:57;;;;;;;7.20;4.00;;;;;;;34.03;25.34;99578.66;7712313;32;37540;-90
2023/06/19 14:20:13;;;;;;;10.65;4.47;;;;;;;34.45;24.35;99580.19;7712522;32;37039;-89
2023/06/19 14:24:30;;;;;;;10.95;4.90;;;;;;;34.89;21.97;99570.22;7711588;32;39439;-89
2023/06/19 14:28:47;;;;;;;8.50;4.47;;;;;;;34.54;22.30;99571.88;7711743;32;39671;-87
2023/06/19 14:33:03;;;;;;;7.37;4.87;;;;;;;34.15;22.24;99577.19;7711416;32;37964;-87
2023/06/19 14:37:20;;;;;;;9.27;4.70;;;;;;;34.92;23.16;99574.97;7711990;32;37732;-90
2023/06/19 14:41:37;;;;;;;10.57;4.47;;;;;;;35.22;22.82;99578.69;7711444;32;40011;-89
2023/06/19 14:45:54;;;;;;;7.95;4.30;;;;;;;35.80;21.62;99577.88;7711716;32;40805;-88
2023/06/19 14:50:10;;;;;;;10.25;4.55;;;;;;;34.96;22.97;99580.53;7711732;32;37885;-86
2023/06/19 14:54:27;;;;;;;8.73;4.22;;;;;;;34.31;23.36;99573.63;7697807;32;36959;-87
2023/06/19 14:58:43;;;;;;;9.90;4.43;;;;;;;34.05;22.87;99570.53;7711814;32;39253;-85
2023/06/19 15:03:00;;;;;;;8.82;4.40;;;;;;;34.06;23.54;99568.50;7711440;32;40144;-86
2023/06/19 15:07:16;;;;;;;8.55;4.85;;;;;;;34.16;22.59;99569.50;7711162;32;37933;-87
2023/06/19 15:11:34;;;;;;;7.07;4.20;;;;;;;34.04;22.59;99568.94;7711333;32;36130;-87
2023/06/19 15:15:53;;;;;;;7.87;4.90;;;;;;;34.14;22.89;99567.09;7711491;32;39448;-87
2023/06/19 15:20:10;;;;;;;8.43;4.43;;;;;;;34.32;22.99;99563.09;7711602;32;40855;-85
2023/06/19 15:24:26;;;;;;;7.55;4.15;;;;;;;34.41;22.97;99563.31;7711201;32;37562;-85
2023/06/19 15:28:44;;;;;;;6.68;4.43;;;;;;;34.51;23.50;99567.09;7711262;32;37296;-85
2023/06/19 15:33:02;;;;;;;7.15;4.57;;;;;;;35.27;23.70;99571.66;7711656;32;39006;-85
2023/06/19 15:37:18;;;;;;;9.07;4.60;;;;;;;35.69;22.20;99563.22;7711428;32;39989;-85
2023/06/19 15:41:35;;;;;;;6.90;4.47;;;;;;;35.16;21.09;99555.72;7711269;32;37936;-85
2023/06/19 15:45:52;;;;;;;8.18;4.40;;;;;;;35.31;21.44;99563.88;7711426;32;37264;-86
2023/06/19 15:50:09;;;;;;;11.15;4.15;;;;;;;35.62;22.63;99566.25;7711119;32;40471;-86
2023/06/19 15:54:26;;;;;;;7.18;4.80;;;;;;;35.58;22.16;99562.72;7710373;32;40838;-84
2023/06/19 15:58:43;;;;;;;13.50;4.43;;;;;;;35.10;22.06;99563.19;7711151;32;37925;-86
2023/06/19 16:03:00;;;;;;;8.38;4.47;;;;;;;35.60;22.81;99563.06;7710203;32;37882;-85
2023/06/19 16:07:16;;;;;;;7.45;4.05;;;;;;;35.45;22.77;99565.53;7709419;32;40319;-85
2023/06/19 16:11:33;;;;;;;7.87;4.22;;;;;;;35.51;23.46;99567.34;7708845;32;39682;-82
2023/06/19 16:15:49;;;;;;;10.80;4.85;;;;;;;35.14;22.73;99552.56;7711441;32;37955;-82
2023/06/19 16:20:06;;;;;;;12.07;4.30;;;;;;;35.09;22.95;99561.59;7709983;32;37368;-83
2023/06/19 16:24:22;;;;;;;8.63;4.35;;;;;;;35.12;23.14;99563.53;7711095;32;39339;-82
2023/06/19 16:28:40;;;;;;;7.90;4.37;;;;;;;35.14;23.22;99563.88;7710900;32;40429;-83
2023/06/19 16:32:56;;;;;;;7.55;4.20;;;;;;;34.98;23.72;99561.09;7711013;32;37887;-83
2023/06/19 16:37:13;;;;;;;10.63;3.80;;;;;;;35.13;22.78;99562.31;7711112;32;36742;-83
2023/06/19 16:41:29;;;;;;;8.63;3.85;;;;;;;34.84;23.94;99562.28;7711087;32;39372;-82
2023/06/19 16:45:46;;;;;;;9.52;4.18;;;;;;;34.78;21.99;99564.81;7710879;32;39997;-83
2023/06/19 16:50:02;;;;;;;7.03;3.92;;;;;;;34.51;22.50;99558.59;7710557;32;37991;-82
2023/06/19 16:54:19;;;;;;;6.82;3.83;;;;;;;34.28;22.82;99566.00;7710885;32;37305;-83
2023/06/19 16:58:35;;;;;;;9.27;4.25;;;;;;;34.18;23.56;99570.62;7710181;32;40157;-83
2023/06/19 17:02:55;;;;;;;18.08;4.87;;;;;;;33.95;23.31;99570.78;7707861;32;39927;-84
2023/06/19 17:07:12;;;;;;;15.73;4.40;;;;;;;33.83;24.55;99570.22;7708471;32;38772;-84
2023/06/19 17:11:28;;;;;;;9.68;4.40;;;;;;;33.68;24.58;99575.38;7703022;32;37188;-86
2023/06/19 17:15:45;;;;;;;7.60;3.78;;;;;;;33.62;25.74;99574.25;7705756;32;38607;-87
2023/06/19 17:20:03;;;;;;;6.75;3.90;;;;;;;33.51;24.80;99573.66;7708450;32;40679;-83
2023/06/19 17:24:21;;;;;;;7.30;3.53;;;;;;;33.34;24.67;99586.12;7707113;32;37167;-85
2023/06/19 17:28:37;;;;;;;8.82;4.10;;;;;;;33.06;25.03;99585.38;7707721;32;37125;-80
2023/06/19 17:32:54;;;;;;;9.60;4.25;;;;;;;32.79;25.23;99586.25;7708642;32;39297;-84
2023/06/19 17:37:10;;;;;;;7.30;3.80;;;;;;;32.64;25.88;99587.72;7708344;32;40010;-88
2023/06/19 17:41:27;;;;;;;8.02;3.90;;;;;;;32.43;26.01;99589.63;7703883;32;38488;-85
2023/06/19 17:45:43;;;;;;;9.20;4.45;;;;;;;32.04;26.37;99590.94;7707407;32;37149;-87
2023/06/19 17:50:00;;;;;;;8.18;3.65;;;;;;;31.60;27.47;99584.28;7706298;32;40039;-87
2023/06/19 17:54:19;;;;;;;5.87;3.78;;;;;;;31.43;28.24;99586.81;7708986;32;40006;-85
2023/06/19 17:58:35;;;;;;;8.63;3.87;;;;;;;31.12;29.89;99587.97;7708734;32;39185;-87
2023/06/19 18:02:51;;;;;;;15.50;4.40;;;;;;;30.87;29.43;99591.78;7709370;32;37534;-84
2023/06/19 18:07:09;;;;;;;14.70;3.95;;;;;;;30.74;29.58;99599.13;7709228;32;39608;-87
2023/06/19 18:11:25;;;;;;;14.98;4.60;;;;;;;30.30;30.81;99605.03;7694317;32;40826;-83
2023/06/19 18:15:41;;;;;;;9.50;4.25;;;;;;;30.22;31.53;99606.28;7707401;32;38728;-83
2023/06/19 18:19:58;;;;;;;8.82;4.32;;;;;;;29.92;32.79;99607.59;7710095;32;37244;-84
2023/06/19 18:24:15;;;;;;;9.02;4.45;;;;;;;29.69;34.55;99612.91;7710968;32;40093;-84
2023/06/19 18:28:31;;;;;;;10.52;4.70;;;;;;;29.55;34.86;99617.34;7710491;32;41185;-83
2023/06/19 18:32:48;;;;;;;12.43;4.97;;;;;;;29.38;35.18;99612.59;7710526;32;37863;-82
2023/06/19 18:37:04;;;;;;;8.10;4.57;;;;;;;28.99;35.62;99621.81;7709361;32;37284;-86
2023/06/19 18:41:21;;;;;;;7.32;4.12;;;;;;;28.69;35.57;99619.41;7694860;32;39824;-84
2023/06/19 18:45:37;;;;;;;10.50;4.35;;;;;;;28.35;37.35;99616.91;7708166;32;39696;-82
2023/06/19 18:49:54;;;;;;;7.10;4.32;;;;;;;27.93;39.32;99624.78;7709172;32;38707;-84
2023/06/19 18:54:10;;;;;;;6.22;4.12;;;;;;;27.80;39.30;99629.09;7711114;32;37112;-85
2023/06/19 18:58:28;;;;;;;8.95;4.53;;;;;;;27.62;40.07;99634.63;7686814;32;39088;-85
2023/06/19 19:02:45;;;;;;;6.97;4.10;;;;;;;27.23;41.10;99633.13;7691729;32;39993;-84
2023/06/19 19:07:04;;;;;;;9.30;4.70;;;;;;;27.03;40.72;99640.97;7711798;32;38007;-84
2023/06/19 19:11:22;;;;;;;6.40;3.78;;;;;;;26.84;40.88;99644.81;7711596;32;37129;-85
2023/06/19 19:15:39;;;;;;;9.60;5.07;;;;;;;26.61;41.59;99647.75;7711974;32;38454;-85
2023/06/19 19:19:55;;;;;;;10.23;5.12;;;;;;;26.75;41.19;99653.53;7710003;32;41098;-84
2023/06/19 19:24:12;;;;;;;7.03;4.37;;;;;;;26.54;41.40;99656.06;7709692;32;37940;-84
2023/06/19 19:28:28;;;;;;;20.30;4.70;;;;;;;26.36;41.05;99664.25;7709542;32;37927;-85
2023/06/19 19:32:45;;;;;;;9.20;4.90;;;;;;;26.05;41.25;99655.91;7709470;32;39543;-85
2023/06/19 19:37:02;;;;;;;8.77;4.60;;;;;;;26.01;40.66;99662.66;7709205;32;38599;-86
2023/06/19 19:41:18;;;;;;;11.12;4.65;;;;;;;26.00;39.79;99661.03;7709114;32;37978;-87
2023/06/19 19:45:37;;;;;;;10.23;5.78;;;;;;;25.65;40.45;99664.94;7709301;32;37470;-85
2023/06/19 19:49:54;;;;;;;12.13;6.40;;;;;;;25.70;39.90;99667.41;7709690;32;39971;-86
2023/06/19 19:54:10;;;;;;;14.45;9.25;;;;;;;25.64;40.01;99680.84;7710314;32;39992;-86
2023/06/19 19:58:27;;;;;;;13.55;9.90;;;;;;;25.54;40.61;99694.66;7711330;32;37559;-91
2023/06/19 20:02:44;;;;;;;11.75;6.40;;;;;;;25.30;40.92;99693.88;7697609;32;37304;-86
2023/06/19 20:07:01;;;;;;;9.27;4.20;;;;;;;25.19;40.08;99698.47;7711109;32;40090;-86